Henderson, Kentucky
Current Conditions -  °F | °C
As of 4:15 AM on Monday 26 Jan 2015 (Local Time) from KEHR Reporting Station
Overcast Overcast  
Wind Chill: 19°   Ceiling: 1400
Heat Index: 30°   Visibility: 10mi
Dew Point: 25°   Wind: 15mph
Humidity: 80%   Direction: 310°NW
Pressure: 29.96"   Gusts: NA
Location:  37.83°N, 87.6°W
Report Text: KEHR 261015Z AUTO 31013KT 10SM OVC014 M01/M04 A2996 RMK AO1
Loading
Personal Weather Stations






























Interactive Weather Map New forecast layout! Learn more

10-Day Weather Forecast

Advertisements
Track Severe Weather on mobile